Time;durP1;ratioP1;P1;durP2;ratioP2;P2;SDS_P1;SDS_P2;PMS_P1;PMS_P2;Temp;Humidity;BMP_temperature;BMP_pressure;BME280_temperature;BME280_humidity;BME280_pressure;Samples;Min_cycle;Max_cycle;Signal;HPM_P1;HPM_P2
2021/07/07 00:01:24;;;;;;;7.78;4.80;;;15.20;99.90;;;;;;4161772;28;20032;-77
2021/07/07 00:03:26;;;;;;;9.43;5.03;;;15.20;99.90;;;;;;4164400;28;20665;-77
2021/07/07 00:05:27;;;;;;;13.07;5.68;;;15.20;99.90;;;;;;4162812;28;20054;-76
2021/07/07 00:07:28;;;;;;;10.93;4.57;;;15.20;99.90;;;;;;4164364;28;20431;-76
2021/07/07 00:09:28;;;;;;;7.22;4.03;;;15.10;99.90;;;;;;4162803;28;20409;-77
2021/07/07 00:11:29;;;;;;;7.10;4.30;;;15.10;99.90;;;;;;4165128;28;20029;-76
2021/07/07 00:13:30;;;;;;;9.50;3.88;;;15.00;99.90;;;;;;4165257;28;20449;-76
2021/07/07 00:15:32;;;;;;;8.55;4.03;;;15.00;99.90;;;;;;4163814;28;20030;-77
2021/07/07 00:17:33;;;;;;;8.77;4.60;;;15.00;99.90;;;;;;4165201;28;20520;-76
2021/07/07 00:19:34;;;;;;;6.55;3.83;;;15.10;99.90;;;;;;4165208;28;20037;-77
2021/07/07 00:21:34;;;;;;;11.48;4.25;;;15.00;99.90;;;;;;4163965;28;20053;-77
2021/07/07 00:23:35;;;;;;;9.45;3.60;;;15.00;99.90;;;;;;4165328;28;20083;-77
2021/07/07 00:25:36;;;;;;;7.60;3.50;;;14.90;99.90;;;;;;4162025;28;20053;-77
2021/07/07 00:27:37;;;;;;;8.48;4.03;;;14.70;99.90;;;;;;4164668;28;20370;-77
2021/07/07 00:29:38;;;;;;;6.78;4.22;;;14.60;99.90;;;;;;4163955;28;20041;-77
2021/07/07 00:31:38;;;;;;;12.95;5.07;;;14.50;99.90;;;;;;4164996;28;20029;-76
2021/07/07 00:33:39;;;;;;;10.60;3.85;;;14.30;99.90;;;;;;4163708;28;20037;-76
2021/07/07 00:35:40;;;;;;;7.75;4.88;;;14.20;99.90;;;;;;4165024;28;20045;-77
2021/07/07 00:37:40;;;;;;;11.90;4.60;;;14.10;99.90;;;;;;4164629;28;20037;-77
2021/07/07 00:39:41;;;;;;;11.20;5.15;;;13.90;99.90;;;;;;4164859;28;20045;-76
2021/07/07 00:41:42;;;;;;;8.63;5.28;;;13.80;99.90;;;;;;4163814;28;20040;-76
2021/07/07 00:43:43;;;;;;;8.32;4.90;;;13.70;99.90;;;;;;4163200;28;20076;-76
2021/07/07 00:45:44;;;;;;;7.20;5.07;;;13.50;99.90;;;;;;4162034;28;20042;-76
2021/07/07 00:47:46;;;;;;;8.15;5.20;;;13.50;99.90;;;;;;4163374;28;20489;-76
2021/07/07 00:49:46;;;;;;;12.32;6.00;;;13.40;99.90;;;;;;4163846;28;20110;-76
2021/07/07 00:51:47;;;;;;;11.95;6.00;;;13.40;99.90;;;;;;4163471;28;20476;-76
2021/07/07 00:53:50;;;;;;;10.50;6.32;;;13.30;99.90;;;;;;4163611;28;20041;-76
2021/07/07 00:55:52;;;;;;;;;;;13.20;99.90;;;;;;4164265;28;20061;-76
2021/07/07 00:57:53;;;;;;;8.65;5.47;;;13.10;99.90;;;;;;4163085;28;19925;-76
2021/07/07 00:59:54;;;;;;;11.65;5.65;;;13.00;99.90;;;;;;4163163;28;20026;-76
2021/07/07 01:01:55;;;;;;;13.55;6.55;;;12.90;99.90;;;;;;4163061;28;20188;-76
2021/07/07 01:03:56;;;;;;;8.25;6.13;;;12.80;99.90;;;;;;4164505;28;20030;-76
2021/07/07 01:05:57;;;;;;;10.85;6.45;;;12.70;99.90;;;;;;4163272;28;20080;-76
2021/07/07 01:07:57;;;;;;;12.07;7.03;;;12.70;99.90;;;;;;4162311;28;20156;-76
2021/07/07 01:09:58;;;;;;;9.40;6.32;;;12.60;99.90;;;;;;4179567;28;20387;-76
2021/07/07 01:11:59;;;;;;;6.75;5.80;;;12.60;99.90;;;;;;4164367;28;20083;-76
2021/07/07 01:14:01;;;;;;;10.63;5.93;;;12.50;99.90;;;;;;4163733;28;20120;-76
2021/07/07 01:16:04;;;;;;;12.30;7.20;;;12.40;99.90;;;;;;4162160;28;20045;-76
2021/07/07 01:18:04;;;;;;;8.83;6.63;;;12.30;99.90;;;;;;4161324;28;20746;-76
2021/07/07 01:20:08;;;;;;;12.77;7.43;;;12.30;99.90;;;;;;4163937;28;20277;-76
2021/07/07 01:22:08;;;;;;;14.98;7.60;;;12.30;99.90;;;;;;4162174;28;20155;-76
2021/07/07 01:24:09;;;;;;;14.50;7.97;;;12.20;99.90;;;;;;4161137;28;20032;-76
2021/07/07 01:26:10;;;;;;;9.55;8.27;;;12.20;99.90;;;;;;4157143;28;20033;-76
2021/07/07 01:28:12;;;;;;;10.77;8.68;;;12.20;99.90;;;;;;4161510;28;20045;-76
2021/07/07 01:30:18;;;;;;;19.85;8.63;;;12.30;99.90;;;;;;4160734;28;20108;-76
2021/07/07 01:32:19;;;;;;;12.02;8.70;;;12.30;99.90;;;;;;4161896;28;20029;-76
2021/07/07 01:34:20;;;;;;;20.38;9.27;;;12.40;99.90;;;;;;4163753;28;20036;-76
2021/07/07 01:36:20;;;;;;;17.88;9.38;;;12.40;99.90;;;;;;4163257;28;20124;-76
2021/07/07 01:38:21;;;;;;;12.23;9.60;;;12.30;99.90;;;;;;4163114;28;20061;-76
2021/07/07 01:40:24;;;;;;;14.38;10.55;;;12.30;99.90;;;;;;4162468;28;20560;-76
2021/07/07 01:42:25;;;;;;;13.38;10.10;;;12.30;99.90;;;;;;4161150;28;20029;-76
2021/07/07 01:44:25;;;;;;;16.35;10.68;;;12.30;99.90;;;;;;4162500;28;20789;-76
2021/07/07 01:46:27;;;;;;;15.45;10.07;;;12.30;99.90;;;;;;4162839;28;20396;-76
2021/07/07 01:48:28;;;;;;;14.05;11.10;;;12.40;99.90;;;;;;4161537;28;20477;-76
2021/07/07 01:50:29;;;;;;;16.25;10.77;;;12.50;99.90;;;;;;4161424;28;20022;-76
2021/07/07 01:52:30;;;;;;;14.15;11.43;;;12.60;99.90;;;;;;4161194;28;20034;-76
2021/07/07 01:54:31;;;;;;;16.63;11.48;;;12.60;99.90;;;;;;4160134;28;20036;-76
2021/07/07 01:56:32;;;;;;;15.52;10.48;;;12.60;99.90;;;;;;4161301;28;20500;-76
2021/07/07 01:58:33;;;;;;;14.10;11.32;;;12.60;99.90;;;;;;4161207;28;20128;-76
2021/07/07 02:00:35;;;;;;;19.48;12.38;;;12.60;99.90;;;;;;4157052;28;20543;-76
2021/07/07 02:02:35;;;;;;;18.20;12.25;;;12.60;99.90;;;;;;4162452;28;20512;-76
2021/07/07 02:04:36;;;;;;;16.25;12.50;;;12.60;99.90;;;;;;4162771;28;20033;-76
2021/07/07 02:06:38;;;;;;;19.05;11.90;;;12.60;99.90;;;;;;4162010;28;20366;-76
2021/07/07 02:08:38;;;;;;;16.55;11.32;;;12.60;99.90;;;;;;4160566;28;20072;-76
2021/07/07 02:10:39;;;;;;;15.75;11.10;;;12.70;99.90;;;;;;4162949;28;20381;-76
2021/07/07 02:12:40;;;;;;;16.55;11.85;;;12.60;99.90;;;;;;4163443;28;20030;-76
2021/07/07 02:14:41;;;;;;;30.70;11.30;;;12.60;99.90;;;;;;4163402;28;20029;-76
2021/07/07 02:16:42;;;;;;;18.02;11.15;;;12.50;99.90;;;;;;4163344;28;20105;-76
2021/07/07 02:18:43;;;;;;;15.95;11.70;;;12.50;99.90;;;;;;4163599;28;20034;-76
2021/07/07 02:20:46;;;;;;;19.58;12.15;;;12.50;99.90;;;;;;4163596;28;20032;-76
2021/07/07 02:22:48;;;;;;;12.95;11.23;;;12.50;99.90;;;;;;4162263;28;20045;-76
2021/07/07 02:24:48;;;;;;;19.50;11.60;;;12.50;99.90;;;;;;4162910;28;20034;-76
2021/07/07 02:26:49;;;;;;;15.68;12.32;;;12.50;99.90;;;;;;4162067;28;20034;-76
2021/07/07 02:28:50;;;;;;;14.80;11.45;;;12.60;99.90;;;;;;4163725;28;20030;-76
2021/07/07 02:30:53;;;;;;;19.70;12.20;;;12.50;99.90;;;;;;4163462;28;20026;-76
2021/07/07 02:32:55;;;;;;;16.75;13.18;;;12.50;99.90;;;;;;4163466;28;20392;-76
2021/07/07 02:34:56;;;;;;;16.27;11.93;;;12.50;99.90;;;;;;4160540;28;20524;-76
2021/07/07 02:36:57;;;;;;;17.05;12.05;;;12.50;99.90;;;;;;4163597;28;20029;-76
2021/07/07 02:38:57;;;;;;;17.95;12.75;;;12.40;99.90;;;;;;4149528;28;20432;-76
2021/07/07 02:40:58;;;;;;;14.32;12.82;;;12.40;99.90;;;;;;4161977;28;20021;-76
2021/07/07 02:43:00;;;;;;;16.70;12.10;;;12.30;99.90;;;;;;4163309;28;20055;-76
2021/07/07 02:45:02;;;;;;;18.30;12.90;;;12.30;99.90;;;;;;4163135;28;20083;-76
2021/07/07 02:47:03;;;;;;;20.88;12.98;;;12.20;99.90;;;;;;4163216;28;20072;-76
2021/07/07 02:49:04;;;;;;;15.70;12.27;;;12.10;99.90;;;;;;4166408;28;20516;-76
2021/07/07 02:51:04;;;;;;;17.42;12.63;;;12.10;99.90;;;;;;4166559;28;20022;-76
2021/07/07 02:53:07;;;;;;;20.77;13.07;;;12.10;99.90;;;;;;4164871;28;20116;-76
2021/07/07 02:55:09;;;;;;;20.23;12.73;;;12.00;99.90;;;;;;4166308;28;20044;-76
2021/07/07 02:57:09;;;;;;;21.48;13.73;;;12.00;99.90;;;;;;4164817;28;20045;-76
2021/07/07 02:59:10;;;;;;;19.42;13.57;;;12.00;99.90;;;;;;4164975;28;20068;-76
2021/07/07 03:01:10;;;;;;;23.75;13.60;;;12.00;99.90;;;;;;4166424;28;20021;-77
2021/07/07 03:03:19;;;;;;;22.38;13.63;;;11.90;99.90;;;;;;4166286;28;20579;-76
2021/07/07 03:05:20;;;;;;;17.23;13.25;;;11.90;99.90;;;;;;4166480;28;20516;-77
2021/07/07 03:07:20;;;;;;;18.63;13.75;;;11.90;99.90;;;;;;4166169;28;20034;-77
2021/07/07 03:09:21;;;;;;;22.73;13.88;;;11.90;99.90;;;;;;4166099;28;20044;-77
2021/07/07 03:11:22;;;;;;;15.48;13.02;;;11.90;99.90;;;;;;4166316;28;20358;-77
2021/07/07 03:13:24;;;;;;;18.90;14.27;;;11.90;99.90;;;;;;4166132;28;20477;-76
2021/07/07 03:15:25;;;;;;;21.63;14.32;;;12.00;99.90;;;;;;4165755;28;20203;-77
2021/07/07 03:17:26;;;;;;;18.65;12.68;;;12.00;99.90;;;;;;4160327;28;20119;-77
2021/07/07 03:19:27;;;;;;;21.45;14.55;;;12.10;99.90;;;;;;4150595;28;20080;-77
2021/07/07 03:21:27;;;;;;;22.38;14.70;;;12.10;99.90;;;;;;4155900;28;20497;-76
2021/07/07 03:23:28;;;;;;;22.83;15.25;;;12.10;99.90;;;;;;4163586;28;20038;-76
2021/07/07 03:25:29;;;;;;;26.50;14.93;;;12.10;99.90;;;;;;4158169;28;20033;-76
2021/07/07 03:27:30;;;;;;;24.50;14.52;;;12.10;99.90;;;;;;4172518;28;20029;-76
2021/07/07 03:29:30;;;;;;;18.83;14.57;;;12.10;99.90;;;;;;4166133;28;20025;-76
2021/07/07 03:31:31;;;;;;;24.05;16.23;;;12.10;99.90;;;;;;4164529;28;20026;-76
2021/07/07 03:33:32;;;;;;;20.98;14.68;;;12.10;99.90;;;;;;4164480;28;20049;-76
2021/07/07 03:35:33;;;;;;;23.48;15.77;;;12.10;99.90;;;;;;4164138;28;20045;-76
2021/07/07 03:37:34;;;;;;;25.40;16.60;;;12.20;99.90;;;;;;4164037;28;20038;-77
2021/07/07 03:39:35;;;;;;;22.55;15.82;;;12.30;99.90;;;;;;4165220;28;20060;-77
2021/07/07 03:41:36;;;;;;;18.88;15.73;;;12.30;99.90;;;;;;4165699;28;20041;-76
2021/07/07 03:43:36;;;;;;;22.58;15.90;;;12.40;99.90;;;;;;4165391;28;20097;-76
2021/07/07 03:45:37;;;;;;;22.52;15.55;;;12.40;99.90;;;;;;4165329;28;20033;-76
2021/07/07 03:47:38;;;;;;;26.13;17.70;;;12.50;99.90;;;;;;4164993;28;20033;-77
2021/07/07 03:49:39;;;;;;;24.58;17.02;;;12.50;99.90;;;;;;4165313;28;20461;-77
2021/07/07 03:51:39;;;;;;;22.70;14.77;;;12.40;99.90;;;;;;4161090;28;20039;-77
2021/07/07 03:53:40;;;;;;;22.08;15.75;;;12.40;99.90;;;;;;4165186;28;20124;-77
2021/07/07 03:55:41;;;;;;;20.60;15.57;;;12.40;99.90;;;;;;4163903;28;20034;-77
2021/07/07 03:57:42;;;;;;;25.25;15.57;;;12.40;99.90;;;;;;4164058;28;20061;-77
2021/07/07 03:59:45;;;;;;;41.58;16.75;;;12.30;99.90;;;;;;4163159;28;20022;-77
2021/07/07 04:01:45;;;;;;;22.95;15.73;;;12.30;99.90;;;;;;4163939;28;20052;-77
2021/07/07 04:03:46;;;;;;;22.42;15.32;;;12.40;99.90;;;;;;4164892;28;20053;-77
2021/07/07 04:05:47;;;;;;;25.15;16.77;;;12.30;99.90;;;;;;4164517;28;20476;-77
2021/07/07 04:07:48;;;;;;;22.27;16.33;;;12.40;99.90;;;;;;4178960;28;20029;-76
2021/07/07 04:09:48;;;;;;;23.92;17.15;;;12.40;99.90;;;;;;4157956;28;20036;-77
2021/07/07 04:11:49;;;;;;;22.83;16.52;;;12.40;99.90;;;;;;4159486;28;20026;-77
2021/07/07 04:13:49;;;;;;;26.00;18.02;;;12.40;99.90;;;;;;4158236;28;20125;-77
2021/07/07 04:15:50;;;;;;;25.30;16.38;;;12.50;99.90;;;;;;4161878;28;20087;-77
2021/07/07 04:17:51;;;;;;;21.90;17.08;;;12.50;99.90;;;;;;4157377;28;20397;-77
2021/07/07 04:19:51;;;;;;;26.15;17.50;;;12.50;99.90;;;;;;4156064;28;20411;-77
2021/07/07 04:21:53;;;;;;;22.23;16.42;;;12.50;99.90;;;;;;4159272;28;20034;-77
2021/07/07 04:23:54;;;;;;;24.45;16.60;;;12.50;99.90;;;;;;4157061;28;20084;-77
2021/07/07 04:25:54;;;;;;;22.77;17.33;;;12.50;99.90;;;;;;4163123;28;20033;-77
2021/07/07 04:27:55;;;;;;;29.35;17.17;;;12.20;99.90;;;;;;4161205;28;20553;-77
2021/07/07 04:29:57;;;;;;;23.90;17.08;;;12.60;99.90;;;;;;4161796;28;20045;-77
2021/07/07 04:31:58;;;;;;;23.10;16.90;;;12.60;99.90;;;;;;4158776;28;20054;-77
2021/07/07 04:33:59;;;;;;;29.77;17.80;;;12.70;99.90;;;;;;4154686;28;20393;-78
2021/07/07 04:35:59;;;;;;;24.65;16.48;;;12.70;99.90;;;;;;4153142;28;20544;-77
2021/07/07 04:38:00;;;;;;;30.63;18.83;;;12.80;99.90;;;;;;4154859;28;20046;-77
2021/07/07 04:40:01;;;;;;;23.65;17.33;;;12.80;99.90;;;;;;4159502;28;20045;-77
2021/07/07 04:42:02;;;;;;;23.38;18.25;;;12.90;99.90;;;;;;4163124;28;20139;-77
2021/07/07 04:44:03;;;;;;;24.42;17.63;;;13.00;99.90;;;;;;4164360;28;20033;-78
2021/07/07 04:46:03;;;;;;;24.98;17.00;;;13.10;99.90;;;;;;4164691;28;20388;-77
2021/07/07 04:48:04;;;;;;;30.35;18.15;;;13.20;99.90;;;;;;4162616;28;20033;-77
2021/07/07 04:50:10;;;;;;;22.27;16.65;;;13.40;99.90;;;;;;4152661;28;20449;-77
2021/07/07 04:52:11;;;;;;;27.80;17.60;;;13.60;99.90;;;;;;4151251;28;20095;-77
2021/07/07 04:54:12;;;;;;;24.70;17.02;;;13.80;99.90;;;;;;4160512;28;20030;-77
2021/07/07 04:56:13;;;;;;;24.20;17.85;;;14.00;99.90;;;;;;4153075;28;20083;-77
2021/07/07 04:58:13;;;;;;;21.67;17.65;;;14.10;99.90;;;;;;4153760;28;20038;-77
2021/07/07 05:00:22;;;;;;;20.02;16.02;;;14.30;99.90;;;;;;4172391;28;20041;-77
2021/07/07 05:02:23;;;;;;;22.90;15.80;;;14.50;99.90;;;;;;4149902;28;20084;-77
2021/07/07 05:04:24;;;;;;;18.27;16.17;;;14.60;99.90;;;;;;4153370;28;20025;-77
2021/07/07 05:06:25;;;;;;;15.95;14.27;;;14.60;99.90;;;;;;4155152;28;20033;-77
2021/07/07 05:08:25;;;;;;;20.60;14.35;;;14.70;99.90;;;;;;4153997;28;20551;-77
2021/07/07 05:10:29;;;;;;;17.55;14.20;;;14.70;99.90;;;;;;4163697;28;20485;-77
2021/07/07 05:12:30;;;;;;;16.90;13.63;;;14.80;99.90;;;;;;4161522;28;20080;-77
2021/07/07 05:14:31;;;;;;;15.18;11.82;;;14.90;99.90;;;;;;4155658;28;20029;-77
2021/07/07 05:16:32;;;;;;;16.05;12.50;;;14.90;99.90;;;;;;4154905;28;20038;-77
2021/07/07 05:18:33;;;;;;;14.73;12.30;;;15.00;99.90;;;;;;4151253;28;20049;-76
2021/07/07 05:20:34;;;;;;;19.52;11.95;;;15.00;99.90;;;;;;4155883;28;20041;-77
2021/07/07 05:22:35;;;;;;;13.70;11.18;;;15.10;99.90;;;;;;4155379;28;20038;-76
2021/07/07 05:24:35;;;;;;;12.57;11.13;;;15.10;99.90;;;;;;4152136;28;20117;-77
2021/07/07 05:26:36;;;;;;;15.35;11.25;;;15.20;99.90;;;;;;4162336;28;20021;-76
2021/07/07 05:28:37;;;;;;;17.33;12.27;;;15.20;99.90;;;;;;4153160;28;20112;-77
2021/07/07 05:30:38;;;;;;;14.65;11.15;;;15.20;99.90;;;;;;4164650;28;20033;-77
2021/07/07 05:32:39;;;;;;;15.40;11.02;;;15.20;99.90;;;;;;4151176;28;20141;-77
2021/07/07 05:34:40;;;;;;;15.88;11.88;;;15.20;99.90;;;;;;4154932;28;20372;-77
2021/07/07 05:36:43;;;;;;;13.32;10.80;;;15.20;99.90;;;;;;4151920;28;20057;-77
2021/07/07 05:38:44;;;;;;;16.50;11.35;;;15.10;99.90;;;;;;4168587;28;20029;-77
2021/07/07 05:40:44;;;;;;;13.50;12.05;;;15.20;99.90;;;;;;4170280;28;20030;-77
2021/07/07 05:42:50;;;;;;;15.70;11.30;;;15.30;99.90;;;;;;4161704;28;20383;-77
2021/07/07 05:44:52;;;;;;;17.13;12.30;;;15.40;99.90;;;;;;4150602;28;20025;-77
2021/07/07 05:46:53;;;;;;;13.52;9.85;;;15.60;99.90;;;;;;4167070;28;20030;-77
2021/07/07 05:48:53;;;;;;;10.65;9.52;;;15.80;99.90;;;;;;4149412;28;20088;-77
2021/07/07 05:50:56;;;;;;;13.05;9.80;;;15.90;99.90;;;;;;4160645;28;20029;-76
2021/07/07 05:52:57;;;;;;;12.27;9.80;;;16.10;99.90;;;;;;4148530;28;20125;-76
2021/07/07 05:54:57;;;;;;;12.68;9.85;;;16.10;99.90;;;;;;4148510;28;20088;-78
2021/07/07 05:56:58;;;;;;;11.27;9.10;;;16.00;99.90;;;;;;4148449;28;20028;-77
2021/07/07 05:58:59;;;;;;;11.68;9.32;;;15.90;99.90;;;;;;4146978;28;20540;-77
2021/07/07 06:01:00;;;;;;;10.38;9.00;;;15.90;99.90;;;;;;4161181;28;20446;-77
2021/07/07 06:03:00;;;;;;;15.10;9.27;;;16.10;99.90;;;;;;4161996;28;20053;-77
2021/07/07 06:05:01;;;;;;;13.52;9.55;;;16.30;99.90;;;;;;4153172;28;20068;-77
2021/07/07 06:07:03;;;;;;;13.15;9.48;;;16.50;99.90;;;;;;4153827;28;20056;-77
2021/07/07 06:09:03;;;;;;;18.30;9.50;;;16.70;99.90;;;;;;4160903;28;20035;-78
2021/07/07 06:11:04;;;;;;;9.32;8.07;;;16.80;99.90;;;;;;4155287;28;20045;-77
2021/07/07 06:13:04;;;;;;;13.20;9.18;;;17.00;99.90;;;;;;4158116;28;20053;-77
2021/07/07 06:15:06;;;;;;;11.25;9.38;;;;;;;;;;4159303;28;20099;-78
2021/07/07 06:17:07;;;;;;;15.63;10.15;;;17.20;99.90;;;;;;4162220;28;20092;-78
2021/07/07 06:19:08;;;;;;;13.40;9.27;;;17.10;99.90;;;;;;4161604;28;20030;-77
2021/07/07 06:21:08;;;;;;;13.85;9.90;;;;;;;;;;4162292;28;20067;-77
2021/07/07 06:23:09;;;;;;;11.02;8.77;;;17.30;99.90;;;;;;4162796;28;20030;-77
2021/07/07 06:25:13;;;;;;;10.20;8.27;;;17.30;99.90;;;;;;4163122;28;20025;-77
2021/07/07 06:27:13;;;;;;;10.60;9.18;;;17.20;99.90;;;;;;4163052;28;20021;-77
2021/07/07 06:29:15;;;;;;;14.98;9.20;;;17.10;99.90;;;;;;4157898;28;20354;-77
2021/07/07 06:31:16;;;;;;;14.63;9.07;;;17.10;99.90;;;;;;4161709;28;20484;-77
2021/07/07 06:33:17;;;;;;;10.68;9.57;;;17.20;99.90;;;;;;4161413;28;20037;-75
2021/07/07 06:35:19;;;;;;;13.13;8.98;;;17.30;99.90;;;;;;4163245;28;20026;-77
2021/07/07 06:37:19;;;;;;;9.80;7.53;;;17.40;99.90;;;;;;4163294;28;20489;-77
2021/07/07 06:39:20;;;;;;;13.85;8.70;;;17.50;99.90;;;;;;4163018;28;20061;-77
2021/07/07 06:41:21;;;;;;;11.15;7.55;;;17.50;99.90;;;;;;4163329;28;20034;-78
2021/07/07 06:43:22;;;;;;;12.45;8.25;;;17.60;99.90;;;;;;4162946;28;20040;-75
2021/07/07 06:45:23;;;;;;;10.25;8.15;;;17.60;99.90;;;;;;4163006;28;20057;-77
2021/07/07 06:47:24;;;;;;;10.23;8.13;;;17.70;99.90;;;;;;4163233;28;20029;-77
2021/07/07 06:49:25;;;;;;;13.25;8.43;;;17.70;99.90;;;;;;4162889;28;20047;-75
2021/07/07 06:51:27;;;;;;;9.13;7.60;;;17.80;99.90;;;;;;4162784;28;20033;-77
2021/07/07 06:53:28;;;;;;;15.73;9.68;;;17.80;99.90;;;;;;4162736;28;20030;-77
2021/07/07 06:55:29;;;;;;;9.43;7.20;;;17.80;99.90;;;;;;4161627;28;20033;-77
2021/07/07 06:57:34;;;;;;;15.57;7.53;;;17.90;99.90;;;;;;4160956;28;20068;-77
2021/07/07 06:59:35;;;;;;;9.57;7.20;;;18.70;99.90;;;;;;4162784;28;20041;-77
2021/07/07 07:01:36;;;;;;;10.63;6.93;;;17.80;99.90;;;;;;4162027;28;20048;-77
2021/07/07 07:03:36;;;;;;;13.10;6.70;;;18.00;99.90;;;;;;4163549;28;20510;-77
2021/07/07 07:05:37;;;;;;;9.73;7.45;;;;;;;;;;4162720;28;20083;-77
2021/07/07 07:07:39;;;;;;;13.60;6.68;;;;;;;;;;4162846;28;20488;-77
2021/07/07 07:09:39;;;;;;;11.75;7.32;;;18.70;99.90;;;;;;4161165;28;20042;-77
2021/07/07 07:11:40;;;;;;;9.70;6.57;;;18.70;99.90;;;;;;4162424;28;20140;-75
2021/07/07 07:13:41;;;;;;;14.15;6.18;;;18.90;99.90;;;;;;4161563;28;20141;-75
2021/07/07 07:15:46;;;;;;;11.77;5.75;;;19.20;99.90;;;;;;4159935;28;20489;-75
2021/07/07 07:17:47;;;;;;;8.38;5.78;;;19.30;99.90;;;;;;4159413;28;20143;-75
2021/07/07 07:19:48;;;;;;;9.13;6.65;;;19.40;99.90;;;;;;4153414;28;20043;-75
2021/07/07 07:21:49;;;;;;;12.60;6.78;;;19.40;99.90;;;;;;4161397;28;20539;-75
2021/07/07 07:23:50;;;;;;;11.68;7.43;;;19.50;99.90;;;;;;4163588;28;20029;-75
2021/07/07 07:25:50;;;;;;;11.30;5.30;;;19.40;99.90;;;;;;4156763;28;20040;-75
2021/07/07 07:27:52;;;;;;;12.48;5.50;;;19.50;99.90;;;;;;4162681;28;20025;-75
2021/07/07 07:29:53;;;;;;;10.73;5.07;;;19.60;99.90;;;;;;4162462;28;20030;-75
2021/07/07 07:31:54;;;;;;;9.85;5.85;;;19.80;99.90;;;;;;4162585;28;20112;-75
2021/07/07 07:33:54;;;;;;;9.90;5.07;;;20.00;99.90;;;;;;4155671;28;20033;-75
2021/07/07 07:35:55;;;;;;;12.95;6.22;;;20.10;99.90;;;;;;4164684;28;20029;-75
2021/07/07 07:38:09;;;;;;;8.75;4.53;;;20.10;99.90;;;;;;4166042;28;20547;-75
2021/07/07 07:40:10;;;;;;;10.27;4.68;;;20.10;99.90;;;;;;4164225;28;20041;-75
2021/07/07 07:42:16;;;;;;;12.73;4.53;;;20.20;99.90;;;;;;4163864;28;20400;-76
2021/07/07 07:44:18;;;;;;;8.38;4.57;;;20.30;99.90;;;;;;4164678;28;20042;-76
2021/07/07 07:46:18;;;;;;;10.68;6.20;;;20.30;99.90;;;;;;4165866;28;20025;-75
2021/07/07 07:48:19;;;;;;;10.02;5.88;;;20.60;99.90;;;;;;4164640;28;20100;-75
2021/07/07 07:50:20;;;;;;;13.90;5.22;;;20.60;99.90;;;;;;4165604;28;20025;-75
2021/07/07 07:52:21;;;;;;;8.88;4.38;;;20.80;99.90;;;;;;4164048;28;22745;-75
2021/07/07 07:54:22;;;;;;;8.43;4.07;;;20.70;99.90;;;;;;4164917;28;20045;-76
2021/07/07 07:56:23;;;;;;;13.57;6.50;;;20.80;99.90;;;;;;4165615;28;20060;-76
2021/07/07 07:58:23;;;;;;;11.65;5.13;;;20.90;99.90;;;;;;4163818;28;20045;-75
2021/07/07 08:00:25;;;;;;;9.57;5.75;;;20.50;99.90;;;;;;4163199;28;20064;-75
2021/07/07 08:02:26;;;;;;;8.43;5.00;;;20.40;99.90;;;;;;4164612;28;20029;-75
2021/07/07 08:04:27;;;;;;;12.68;5.90;;;20.40;99.90;;;;;;4165132;28;20361;-76
2021/07/07 08:06:28;;;;;;;10.52;5.35;;;20.60;99.90;;;;;;4165227;28;20064;-75
2021/07/07 08:08:28;;;;;;;10.20;5.55;;;20.90;99.90;;;;;;4153405;28;20034;-75
2021/07/07 08:10:30;;;;;;;8.98;5.28;;;20.90;99.90;;;;;;4151233;28;20042;-75
2021/07/07 08:12:31;;;;;;;8.63;4.10;;;20.60;99.90;;;;;;4150430;28;20030;-76
2021/07/07 08:14:31;;;;;;;12.32;4.88;;;20.40;99.90;;;;;;4154493;28;20531;-75
2021/07/07 08:16:32;;;;;;;12.70;4.32;;;20.30;99.90;;;;;;4169953;28;20033;-75
2021/07/07 08:18:33;;;;;;;7.47;4.20;;;20.50;99.90;;;;;;4149830;28;20677;-76
2021/07/07 08:20:33;;;;;;;12.50;4.20;;;20.80;99.90;;;;;;4163409;28;20489;-76
2021/07/07 08:22:34;;;;;;;9.27;4.30;;;20.70;99.90;;;;;;4153876;28;20032;-75
2021/07/07 08:24:35;;;;;;;13.15;5.97;;;20.90;99.90;;;;;;4154352;28;20053;-76
2021/07/07 08:26:36;;;;;;;9.23;3.80;;;21.20;99.90;;;;;;4153008;28;20117;-75
2021/07/07 08:28:36;;;;;;;8.45;4.05;;;21.40;99.90;;;;;;4163381;28;20104;-75
2021/07/07 08:30:37;;;;;;;10.40;4.13;;;21.30;99.90;;;;;;4152611;28;20038;-75
2021/07/07 08:32:38;;;;;;;7.30;4.70;;;21.10;99.90;;;;;;4153112;28;20033;-75
2021/07/07 08:34:39;;;;;;;8.80;4.85;;;21.40;99.90;;;;;;4151711;28;20092;-76
2021/07/07 08:36:39;;;;;;;6.45;4.10;;;21.30;99.90;;;;;;4156378;28;20026;-76
2021/07/07 08:38:40;;;;;;;7.07;4.13;;;21.40;99.90;;;;;;4151493;28;20452;-76
2021/07/07 08:40:41;;;;;;;10.70;4.22;;;21.80;99.90;;;;;;4153106;28;20034;-76
2021/07/07 08:42:42;;;;;;;11.07;4.40;;;22.00;99.90;;;;;;4155542;28;20390;-76
2021/07/07 08:44:43;;;;;;;8.05;4.03;;;22.40;99.90;;;;;;4154295;28;20025;-75
2021/07/07 08:46:44;;;;;;;11.73;5.38;;;22.70;99.90;;;;;;4149675;28;20072;-75
2021/07/07 08:48:45;;;;;;;6.95;4.20;;;22.90;99.90;;;;;;4149145;28;20022;-76
2021/07/07 08:50:46;;;;;;;4.57;3.08;;;22.90;99.90;;;;;;4170606;28;20444;-75
2021/07/07 08:52:46;;;;;;;7.40;3.97;;;22.90;99.90;;;;;;4151572;28;20034;-76
2021/07/07 08:54:47;;;;;;;7.55;3.50;;;22.90;99.90;;;;;;4149606;28;20022;-76
2021/07/07 08:56:49;;;;;;;11.85;4.53;;;22.90;99.90;;;;;;4150119;28;20080;-75
2021/07/07 08:58:51;;;;;;;8.52;4.00;;;22.70;99.90;;;;;;4167388;28;20021;-75
2021/07/07 09:00:52;;;;;;;8.10;4.00;;;22.60;99.90;;;;;;4151906;28;20034;-76
2021/07/07 09:03:03;;;;;;;7.53;4.38;;;22.60;99.90;;;;;;4164121;28;20022;-75
2021/07/07 09:05:04;;;;;;;8.05;3.95;;;22.40;99.90;;;;;;4159715;28;20041;-75
2021/07/07 09:07:09;;;;;;;10.63;3.28;;;22.10;99.90;;;;;;4154958;28;20559;-76
2021/07/07 09:09:09;;;;;;;6.90;4.60;;;21.80;99.90;;;;;;4168853;28;20074;-76
2021/07/07 09:11:22;;;;;;;6.88;3.70;;;21.90;99.90;;;;;;4153643;28;20108;-75
2021/07/07 09:13:24;;;;;;;6.60;3.55;;;22.00;99.90;;;;;;4156929;28;20034;-75
2021/07/07 09:15:25;;;;;;;7.53;3.40;;;22.00;99.90;;;;;;4150236;28;20038;-75
2021/07/07 09:17:25;;;;;;;7.10;3.55;;;22.20;99.90;;;;;;4167114;28;20041;-75
2021/07/07 09:19:26;;;;;;;6.47;3.85;;;22.50;99.90;;;;;;4151522;28;20038;-75
2021/07/07 09:21:30;;;;;;;5.60;3.38;;;22.70;99.90;;;;;;4157879;28;20034;-75
2021/07/07 09:23:32;;;;;;;7.57;3.60;;;22.10;99.90;;;;;;4153664;28;20144;-75
2021/07/07 09:25:33;;;;;;;5.25;3.53;;;21.90;99.90;;;;;;4153123;28;20042;-76
2021/07/07 09:27:36;;;;;;;15.23;3.78;;;21.90;99.90;;;;;;4153132;28;20049;-76
2021/07/07 09:29:52;;;;;;;12.02;3.63;;;21.90;99.90;;;;;;4149448;28;20592;-75
2021/07/07 09:31:52;;;;;;;8.85;3.25;;;21.80;99.90;;;;;;4153574;28;20048;-75
2021/07/07 09:33:53;;;;;;;6.78;3.20;;;21.60;99.90;;;;;;4155007;28;20401;-76
2021/07/07 09:36:17;;;;;;;3.80;3.17;;;21.90;99.90;;;;;;4150565;28;20030;-76
2021/07/07 09:38:18;;;;;;;5.63;3.30;;;22.70;99.90;;;;;;4146221;28;20061;-76
2021/07/07 09:40:19;;;;;;;6.45;3.47;;;23.40;99.90;;;;;;4151433;28;20091;-75
2021/07/07 09:42:34;;;;;;;7.82;3.88;;;23.90;99.90;;;;;;4161926;28;20098;-76
2021/07/07 09:44:35;;;;;;;4.95;3.42;;;24.40;99.90;;;;;;4152448;28;20129;-76
2021/07/07 09:46:35;;;;;;;9.15;3.90;;;24.70;99.90;;;;;;4151202;28;20056;-75
2021/07/07 09:48:37;;;;;;;9.55;3.38;;;24.80;99.90;;;;;;4162517;28;20041;-75
2021/07/07 09:50:40;;;;;;;7.45;3.33;;;24.50;99.90;;;;;;4161782;28;20036;-77
2021/07/07 09:52:41;;;;;;;;;;;24.00;99.90;;;;;;4162796;28;20025;-76
2021/07/07 09:54:43;;;;;;;8.88;3.40;;;23.30;99.90;;;;;;4163683;28;19916;-76
2021/07/07 09:56:45;;;;;;;7.30;3.40;;;23.00;99.90;;;;;;4162612;28;20057;-76
2021/07/07 09:58:46;;;;;;;5.43;3.50;;;22.50;99.90;;;;;;4163345;28;20361;-75
2021/07/07 10:00:47;;;;;;;7.63;3.42;;;22.40;99.90;;;;;;4163845;28;20034;-76
2021/07/07 10:02:50;;;;;;;6.40;4.13;;;22.30;99.90;;;;;;4163824;28;20714;-76
2021/07/07 10:04:52;;;;;;;9.20;4.63;;;22.40;99.90;;;;;;4163611;28;20034;-75
2021/07/07 10:06:52;;;;;;;13.20;4.93;;;22.30;99.90;;;;;;4163813;28;20033;-75
2021/07/07 10:08:53;;;;;;;7.32;4.80;;;22.20;99.90;;;;;;4163524;28;20378;-76
2021/07/07 10:10:57;;;;;;;6.82;4.55;;;22.00;99.90;;;;;;4162482;28;20071;-76
2021/07/07 10:12:58;;;;;;;8.82;5.10;;;21.80;99.90;;;;;;4163756;28;20116;-76
2021/07/07 10:15:00;;;;;;;15.00;5.28;;;21.20;99.90;;;;;;4162322;28;20068;-76
2021/07/07 10:17:02;;;;;;;8.13;4.03;;;20.80;99.90;;;;;;4163171;28;20500;-75
2021/07/07 10:19:03;;;;;;;7.00;4.65;;;20.60;99.90;;;;;;4161944;28;20260;-76
2021/07/07 10:21:04;;;;;;;12.50;4.88;;;20.50;99.90;;;;;;4163659;28;20017;-76
2021/07/07 10:23:10;;;;;;;8.30;4.50;;;20.80;99.90;;;;;;4161940;28;20029;-76
2021/07/07 10:25:14;;;;;;;8.60;4.95;;;21.30;99.90;;;;;;4161813;28;20484;-76